Weather observations for the past three days for
La Grande/Union County Airport
Imperial (Metric)
Date Time (pdt) Wind (mph) Vis. (mi.) Weather Sky Cond. Temperature (ºF) Relative Humidity Wind Chill (°F) Heat Index (°F) Pressure Precipitation (in)
Air Dwpt 6 hour altimeter (in) sea level (mb) 1 hr 3 hr 6 hr
Max. Min.
31 02:56 Calm 10.00 Fair CLR 46 34 63% 30.04 1016.5
31 00:56 Calm 10.00 Fair CLR 50 33.1 52% 30.05 1016.9
30 23:56 SE 5 10.00 Fair CLR 55 33.1 44% 30.04 1016.8
30 22:56 NW 3 10.00 Fair CLR 55.9 34 75.9 55.9 44% 30.04 1016.8
30 21:56 NW 8 10.00 Fair CLR 63 35.1 35% 30.04 1016.7
30 20:56 N 7 10.00 Fair CLR 59 36 42% 30.03 1016.7
30 19:56 W 9 10.00 Fair CLR 66 34 30% 30.02 1016.1
30 18:56 Calm 10.00 Fair CLR 73.9 34 23% 30.01 1015.8
30 17:56 Calm 10.00 Fair CLR 75 33.1 22% 76 30.01 1015.8
30 16:56 E 5 10.00 Fair CLR 75.9 34 75.9 62.1 22% 77 30.02 1015.9
30 15:56 NE 9 10.00 Fair CLR 75 34 22% 76 30.03 1016.3
30 14:56 Vrbl 3 10.00 Fair CLR 73 35.1 25% 30.04 1016.8
30 13:56 Vrbl 6 10.00 Fair CLR 71.1 36 28% 30.07 1017.7
30 12:56 Vrbl 3 10.00 Fair CLR 69.1 37 31% 30.09 1018.3
30 11:56 Vrbl 5 10.00 Fair CLR 64 36 35% 30.11 1019.2
30 10:56 E 5 10.00 Fair CLR 62.1 36 62.1 37.9 38% 30.12 1019.8
30 09:56 Vrbl 7 10.00 Fair CLR 59 37.9 46% 30.14 1020.3
30 08:56 E 3 10.00 Fair CLR 54 39 57% 30.15 1020.7
30 07:56 NE 3 10.00 Fair CLR 48.9 37 64% 30.15 1020.8
30 06:56 Calm 10.00 Fair CLR 39.9 35.1 83% 30.14 1021.1
30 05:56 SW 3 10.00 Fair CLR 41 35.1 79% 30.13 1020.4
30 04:56 E 3 10.00 Fair CLR 44.1 36 55 42.1 73% 30.11 1019.6
30 03:56 S 3 10.00 Fair CLR 44.1 36 73% 30.11 1019.2
30 01:56 W 8 10.00 Fair CLR 50 37.9 63% 47 30.1 1018.4
30 00:56 W 9 10.00 Fair CLR 53.1 37.9 57% 30.09 1018.2
29 23:56 NW 13 G 18 10.00 Fair CLR 55 37.9 53% 30.09 1018.3
29 22:56 NW 8 10.00 Fair CLR 53.1 37 70 51.1 55% 30.08 1018.2
29 21:56 W 8 10.00 Fair CLR 55 35.1 47% 30.08 1018.2
29 20:56 NW 8 10.00 Fair CLR 57.9 33.1 39% 30.07 1017.7
29 19:56 NW 8 10.00 Fair CLR 60.1 33.1 36% 30.05 1016.9
29 18:56 NW 14 10.00 Fair CLR 63 35.1 35% 30.03 1016.3
29 17:56 NW 9 10.00 Fair CLR 66.9 35.1 31% 30.02 1015.7
29 16:56 NW 20 G 26 10.00 Fair CLR 69.1 34 75 64.9 27% 30 1015.0
29 15:56 NW 17 G 24 10.00 Fair CLR 71.1 35.1 27% 30 1014.7
29 14:56 N 14 G 26 10.00 Fair CLR 72 37 28% 29.98 1013.9
29 13:56 NW 23 G 32 10.00 Fair and Breezy CLR 75 36 24% 76 29.96 1013.1
29 12:56 N 14 G 18 10.00 A Few Clouds FEW070 71.1 39.9 32% 29.99 1014.1
29 11:56 NW 14 10.00 Fair CLR 66.9 43 42% 30.02 1015.0
29 10:56 NW 10 G 17 10.00 Fair CLR 66 44.1 66 55.9 45% 30.03 1015.5
29 09:56 NW 16 10.00 Fair CLR 64.9 44.1 47% 30.02 1015.3
29 08:56 NW 14 10.00 Fair CLR 63 44.1 50% 30.01 1015.0
29 07:56 W 12 10.00 Fair CLR 60.1 43 53% 30.01 1015.2
29 06:56 NW 7 9.00 Partly Cloudy SCT100 55.9 42.1 60% 30 1014.7
29 05:56 NW 10 10.00 Fair CLR 55.9 42.1 60% 29.98 1013.9
29 04:56 NW 16 10.00 Fair CLR 59 42.1 69.1 57.9 54% 29.99 1013.8
29 03:56 NW 15 10.00 Fair CLR 60.1 41 50% 29.98 1013.2
29 02:56 W 12 10.00 A Few Clouds FEW120 62.1 39 43% 29.96 1012.8
29 01:56 W 15 10.00 Mostly Cloudy BKN120 64 37.9 38% 29.95 1012.5
29 00:56 W 14 10.00 Fair CLR 66 37.9 36% 29.94 1012.1
28 23:56 NW 13 10.00 Fair CLR 69.1 39 33% 29.94 1011.9
28 22:56 W 8 10.00 Fair CLR 68 37.9 87.1 66 33% 29.93 1012.0
28 21:56 NW 7 10.00 Fair CLR 69.1 37.9 32% 29.94 1012.2
28 20:56 NW 7 10.00 Fair CLR 70 37.9 31% 29.93 1012.4
28 19:56 W 15 10.00 Overcast OVC120 73 39 29% 29.91 1011.6
28 18:56 NW 14 10.00 A Few Clouds FEW120 78.1 42.1 28% 78 29.89 1011.2
28 17:56 NW 18 10.00 Fair CLR 82 43 25% 80 29.88 1010.6
28 16:56 NW 13 10.00 Fair CLR 87.1 43 87.1 72 21% 84 29.88 1010.0
28 15:56 Vrbl 3 10.00 Fair CLR 87.1 42.1 21% 84 29.9 1010.5
28 14:56 Calm 10.00 Fair CLR 84.9 42.1 22% 82 29.92 1011.2
28 13:56 Vrbl 5 10.00 Fair CLR 81 42.1 25% 79 29.95 1012.4
28 12:56 Calm 10.00 Fair CLR 79 42.1 27% 78 29.98 1013.3
28 11:56 N 9 10.00 Fair CLR 78.1 43 29% 78 30 1014.0
28 10:56 Vrbl 3 10.00 Fair CLR 72 42.1 72 48.9 34% 30.02 1015.0
28 09:56 Vrbl 6 10.00 Fair CLR 70 44.1 39% 30.03 1015.4
28 08:56 Calm 10.00 Fair CLR 63 43 48% 30.05 1016.2
28 07:56 Calm 10.00 Fair CLR 57 41 55% 30.05 1016.7
28 06:56 S 3 10.00 Fair CLR 48.9 39 69% 30.05 1016.8
28 05:56 NW 10 10.00 Fair CLR 52 41 66% 30.04 1016.1
28 04:56 NW 13 10.00 Fair CLR 59 41 68 55.9 51% 30.05 1015.7
28 03:56 NW 10 10.00 Fair CLR 57.9 41 53% 30.05 1015.8
Date Time (pdt) Wind (mph) Vis. (mi.) Weather Sky Cond. Air Dwpt Max. Min. Relative Humidity Wind Chill (°F) Heat Index (°F) altimeter (in) sea level (mb) 1 hr 3 hr 6 hr
6 hour
Temperature (ºF) Pressure Precipitation (in)